sensor_id;sensor_type;location;lat;lon;timestamp;pressure;altitude;pressure_sealevel;temperature
68588;BMP180;55560;52.174;20.996;2022-08-21T00:01:55;100204.60;;;22.96
68588;BMP180;55560;52.174;20.996;2022-08-21T00:04:23;100202.80;;;22.90
68588;BMP180;55560;52.174;20.996;2022-08-21T00:06:57;100200.40;;;22.90
68588;BMP180;55560;52.174;20.996;2022-08-21T00:09:26;100202.40;;;22.80
68588;BMP180;55560;52.174;20.996;2022-08-21T00:11:53;100200.40;;;22.80
68588;BMP180;55560;52.174;20.996;2022-08-21T00:14:21;100198.40;;;22.74
68588;BMP180;55560;52.174;20.996;2022-08-21T00:16:49;100202.20;;;22.70
68588;BMP180;55560;52.174;20.996;2022-08-21T00:19:17;100200.20;;;22.70
68588;BMP180;55560;52.174;20.996;2022-08-21T00:21:45;100200.20;;;22.60
68588;BMP180;55560;52.174;20.996;2022-08-21T00:24:12;100202.60;;;22.60
68588;BMP180;55560;52.174;20.996;2022-08-21T00:26:40;100199.00;;;22.60
68588;BMP180;55560;52.174;20.996;2022-08-21T00:29:08;100195.40;;;22.50
68588;BMP180;55560;52.174;20.996;2022-08-21T00:31:36;100193.40;;;22.50
68588;BMP180;55560;52.174;20.996;2022-08-21T00:34:07;100194.60;;;22.40
68588;BMP180;55560;52.174;20.996;2022-08-21T00:36:35;100190.80;;;22.40
68588;BMP180;55560;52.174;20.996;2022-08-21T00:39:05;100191.80;;;22.38
68588;BMP180;55560;52.174;20.996;2022-08-21T00:41:34;100192.80;;;22.40
68588;BMP180;55560;52.174;20.996;2022-08-21T00:44:07;100189.00;;;22.30
68588;BMP180;55560;52.174;20.996;2022-08-21T00:46:36;100184.80;;;22.30
68588;BMP180;55560;52.174;20.996;2022-08-21T00:49:05;100183.60;;;22.28
68588;BMP180;55560;52.174;20.996;2022-08-21T00:51:42;100180.20;;;22.20
68588;BMP180;55560;52.174;20.996;2022-08-21T00:54:11;100175.80;;;22.20
68588;BMP180;55560;52.174;20.996;2022-08-21T00:59:34;100176.00;;;22.10
68588;BMP180;55560;52.174;20.996;2022-08-21T01:02:06;100179.80;;;22.10
68588;BMP180;55560;52.174;20.996;2022-08-21T01:04:34;100175.60;;;22.10
68588;BMP180;55560;52.174;20.996;2022-08-21T01:07:02;100169.20;;;22.02
68588;BMP180;55560;52.174;20.996;2022-08-21T01:09:30;100166.60;;;22.00
68588;BMP180;55560;52.174;20.996;2022-08-21T01:11:58;100166.40;;;22.00
68588;BMP180;55560;52.174;20.996;2022-08-21T01:14:27;100161.60;;;21.96
68588;BMP180;55560;52.174;20.996;2022-08-21T01:16:56;100161.40;;;21.90
68588;BMP180;55560;52.174;20.996;2022-08-21T01:19:25;100163.80;;;21.90
68588;BMP180;55560;52.174;20.996;2022-08-21T01:21:53;100163.60;;;21.90
68588;BMP180;55560;52.174;20.996;2022-08-21T01:24:21;100165.20;;;21.80
68588;BMP180;55560;52.174;20.996;2022-08-21T01:26:49;100168.00;;;21.80
68588;BMP180;55560;52.174;20.996;2022-08-21T01:32:07;100163.40;;;21.80
68588;BMP180;55560;52.174;20.996;2022-08-21T01:34:37;100161.00;;;21.72
68588;BMP180;55560;52.174;20.996;2022-08-21T01:37:05;100161.40;;;21.70
68588;BMP180;55560;52.174;20.996;2022-08-21T01:39:34;100151.20;;;21.60
68588;BMP180;55560;52.174;20.996;2022-08-21T01:42:03;100145.40;;;21.60
68588;BMP180;55560;52.174;20.996;2022-08-21T01:44:31;100143.20;;;21.60
68588;BMP180;55560;52.174;20.996;2022-08-21T01:47:03;100143.20;;;21.50
68588;BMP180;55560;52.174;20.996;2022-08-21T01:49:31;100139.40;;;21.50
68588;BMP180;55560;52.174;20.996;2022-08-21T01:51:59;100142.80;;;21.50
68588;BMP180;55560;52.174;20.996;2022-08-21T01:54:27;100136.20;;;21.50
68588;BMP180;55560;52.174;20.996;2022-08-21T01:56:55;100137.20;;;21.40
68588;BMP180;55560;52.174;20.996;2022-08-21T01:59:23;100129.60;;;21.40
68588;BMP180;55560;52.174;20.996;2022-08-21T02:01:51;100128.60;;;21.30
68588;BMP180;55560;52.174;20.996;2022-08-21T02:04:21;100127.60;;;21.30
68588;BMP180;55560;52.174;20.996;2022-08-21T02:06:50;100131.40;;;21.30
68588;BMP180;55560;52.174;20.996;2022-08-21T02:09:18;100131.20;;;21.26
68588;BMP180;55560;52.174;20.996;2022-08-21T02:11:47;100133.60;;;21.20
68588;BMP180;55560;52.174;20.996;2022-08-21T02:14:15;100131.20;;;21.20
68588;BMP180;55560;52.174;20.996;2022-08-21T02:16:59;100131.80;;;21.20
68588;BMP180;55560;52.174;20.996;2022-08-21T02:19:36;100128.80;;;21.20
68588;BMP180;55560;52.174;20.996;2022-08-21T02:22:10;100125.80;;;21.10
68588;BMP180;55560;52.174;20.996;2022-08-21T02:24:39;100125.00;;;21.10
68588;BMP180;55560;52.174;20.996;2022-08-21T02:27:24;100126.00;;;21.10
68588;BMP180;55560;52.174;20.996;2022-08-21T02:29:56;100125.80;;;21.10
68588;BMP180;55560;52.174;20.996;2022-08-21T02:32:25;100126.00;;;21.08
68588;BMP180;55560;52.174;20.996;2022-08-21T02:34:53;100127.60;;;21.10
68588;BMP180;55560;52.174;20.996;2022-08-21T02:37:21;100124.60;;;21.00
68588;BMP180;55560;52.174;20.996;2022-08-21T02:39:49;100123.00;;;21.00
68588;BMP180;55560;52.174;20.996;2022-08-21T02:42:17;100118.40;;;21.00
68588;BMP180;55560;52.174;20.996;2022-08-21T02:44:45;100121.40;;;21.00
68588;BMP180;55560;52.174;20.996;2022-08-21T02:47:13;100120.40;;;21.00
68588;BMP180;55560;52.174;20.996;2022-08-21T02:49:41;100119.80;;;20.96
68588;BMP180;55560;52.174;20.996;2022-08-21T02:52:12;100114.80;;;20.90
68588;BMP180;55560;52.174;20.996;2022-08-21T02:54:39;100111.60;;;20.90
68588;BMP180;55560;52.174;20.996;2022-08-21T02:57:07;100111.20;;;20.90
68588;BMP180;55560;52.174;20.996;2022-08-21T02:59:35;100108.80;;;20.90
68588;BMP180;55560;52.174;20.996;2022-08-21T03:02:03;100103.60;;;20.80
68588;BMP180;55560;52.174;20.996;2022-08-21T03:04:31;100103.40;;;20.80
68588;BMP180;55560;52.174;20.996;2022-08-21T03:06:59;100100.40;;;20.80
68588;BMP180;55560;52.174;20.996;2022-08-21T03:09:27;100103.20;;;20.76
68588;BMP180;55560;52.174;20.996;2022-08-21T03:11:55;100096.40;;;20.70
68588;BMP180;55560;52.174;20.996;2022-08-21T03:14:23;100093.80;;;20.70
68588;BMP180;55560;52.174;20.996;2022-08-21T03:16:51;100085.80;;;20.70
68588;BMP180;55560;52.174;20.996;2022-08-21T03:19:19;100084.40;;;20.70
68588;BMP180;55560;52.174;20.996;2022-08-21T03:21:48;100092.00;;;20.70
68588;BMP180;55560;52.174;20.996;2022-08-21T03:24:15;100089.60;;;20.60
68588;BMP180;55560;52.174;20.996;2022-08-21T03:26:47;100093.20;;;20.60
68588;BMP180;55560;52.174;20.996;2022-08-21T03:29:16;100087.40;;;20.60
68588;BMP180;55560;52.174;20.996;2022-08-21T03:31:44;100090.40;;;20.60
68588;BMP180;55560;52.174;20.996;2022-08-21T03:34:11;100083.20;;;20.60
68588;BMP180;55560;52.174;20.996;2022-08-21T03:36:39;100079.20;;;20.60
68588;BMP180;55560;52.174;20.996;2022-08-21T03:39:07;100083.80;;;20.60
68588;BMP180;55560;52.174;20.996;2022-08-21T03:41:35;100077.80;;;20.58
68588;BMP180;55560;52.174;20.996;2022-08-21T03:44:03;100089.60;;;20.54
68588;BMP180;55560;52.174;20.996;2022-08-21T03:46:30;100086.00;;;20.50
68588;BMP180;55560;52.174;20.996;2022-08-21T03:48:59;100086.20;;;20.50
68588;BMP180;55560;52.174;20.996;2022-08-21T03:51:26;100087.80;;;20.50
68588;BMP180;55560;52.174;20.996;2022-08-21T03:53:54;100094.40;;;20.50
68588;BMP180;55560;52.174;20.996;2022-08-21T03:56:22;100091.80;;;20.50
68588;BMP180;55560;52.174;20.996;2022-08-21T03:58:49;100093.60;;;20.52
68588;BMP180;55560;52.174;20.996;2022-08-21T04:01:17;100091.60;;;20.60
68588;BMP180;55560;52.174;20.996;2022-08-21T04:03:45;100092.60;;;20.58
68588;BMP180;55560;52.174;20.996;2022-08-21T04:06:13;100095.80;;;20.54
68588;BMP180;55560;52.174;20.996;2022-08-21T04:08:40;100097.40;;;20.50
68588;BMP180;55560;52.174;20.996;2022-08-21T04:11:10;100105.60;;;20.60
68588;BMP180;55560;52.174;20.996;2022-08-21T04:13:38;100102.60;;;20.60
68588;BMP180;55560;52.174;20.996;2022-08-21T04:16:12;100099.00;;;20.60
68588;BMP180;55560;52.174;20.996;2022-08-21T04:18:40;100097.20;;;20.60
68588;BMP180;55560;52.174;20.996;2022-08-21T04:21:09;100098.00;;;20.60
68588;BMP180;55560;52.174;20.996;2022-08-21T04:23:37;100101.60;;;20.64
68588;BMP180;55560;52.174;20.996;2022-08-21T04:26:05;100097.60;;;20.68
68588;BMP180;55560;52.174;20.996;2022-08-21T04:28:34;100096.80;;;20.70
68588;BMP180;55560;52.174;20.996;2022-08-21T04:31:01;100097.60;;;20.70
68588;BMP180;55560;52.174;20.996;2022-08-21T04:33:29;100097.20;;;20.70
68588;BMP180;55560;52.174;20.996;2022-08-21T04:35:57;100093.20;;;20.72
68588;BMP180;55560;52.174;20.996;2022-08-21T04:38:25;100094.00;;;20.80
68588;BMP180;55560;52.174;20.996;2022-08-21T04:41:02;100095.80;;;20.80
68588;BMP180;55560;52.174;20.996;2022-08-21T04:43:32;100094.80;;;20.86
68588;BMP180;55560;52.174;20.996;2022-08-21T04:45:59;100092.60;;;20.90
68588;BMP180;55560;52.174;20.996;2022-08-21T04:48:28;100088.40;;;20.80
68588;BMP180;55560;52.174;20.996;2022-08-21T04:53:54;100089.80;;;20.80
68588;BMP180;55560;52.174;20.996;2022-08-21T04:56:28;100095.60;;;20.84
68588;BMP180;55560;52.174;20.996;2022-08-21T04:59:00;100098.20;;;20.90
68588;BMP180;55560;52.174;20.996;2022-08-21T05:01:34;100097.20;;;20.94
68588;BMP180;55560;52.174;20.996;2022-08-21T05:04:02;100099.40;;;21.00
68588;BMP180;55560;52.174;20.996;2022-08-21T05:06:33;100104.20;;;21.02
68588;BMP180;55560;52.174;20.996;2022-08-21T05:09:02;100102.40;;;21.10
68588;BMP180;55560;52.174;20.996;2022-08-21T05:11:30;100103.40;;;21.20
68588;BMP180;55560;52.174;20.996;2022-08-21T05:13:58;100101.20;;;21.26
68588;BMP180;55560;52.174;20.996;2022-08-21T05:16:26;100098.20;;;21.30
68588;BMP180;55560;52.174;20.996;2022-08-21T05:19:05;100095.60;;;21.42
68588;BMP180;55560;52.174;20.996;2022-08-21T05:21:34;100101.40;;;21.50
68588;BMP180;55560;52.174;20.996;2022-08-21T05:24:02;100101.20;;;21.60
68588;BMP180;55560;52.174;20.996;2022-08-21T05:26:30;100099.80;;;21.60
68588;BMP180;55560;52.174;20.996;2022-08-21T05:28:58;100102.60;;;21.70
68588;BMP180;55560;52.174;20.996;2022-08-21T05:31:26;100099.00;;;21.80
68588;BMP180;55560;52.174;20.996;2022-08-21T05:33:54;100102.20;;;21.80
68588;BMP180;55560;52.174;20.996;2022-08-21T05:36:23;100097.20;;;21.90
68588;BMP180;55560;52.174;20.996;2022-08-21T05:38:51;100091.40;;;21.90
68588;BMP180;55560;52.174;20.996;2022-08-21T05:41:19;100090.60;;;22.00
68588;BMP180;55560;52.174;20.996;2022-08-21T05:43:47;100093.20;;;22.00
68588;BMP180;55560;52.174;20.996;2022-08-21T05:46:15;100095.80;;;22.00
68588;BMP180;55560;52.174;20.996;2022-08-21T05:48:42;100097.60;;;22.00
68588;BMP180;55560;52.174;20.996;2022-08-21T05:51:13;100096.00;;;22.00
68588;BMP180;55560;52.174;20.996;2022-08-21T05:53:41;100099.00;;;22.04
68588;BMP180;55560;52.174;20.996;2022-08-21T05:56:10;100105.40;;;22.10
68588;BMP180;55560;52.174;20.996;2022-08-21T05:58:38;100107.80;;;22.12
68588;BMP180;55560;52.174;20.996;2022-08-21T06:01:06;100101.00;;;22.32
68588;BMP180;55560;52.174;20.996;2022-08-21T06:03:38;100100.40;;;22.78
68588;BMP180;55560;52.174;20.996;2022-08-21T06:06:06;100099.40;;;23.26
68588;BMP180;55560;52.174;20.996;2022-08-21T06:08:34;100103.60;;;23.66
68588;BMP180;55560;52.174;20.996;2022-08-21T06:11:03;100110.00;;;23.82
68588;BMP180;55560;52.174;20.996;2022-08-21T06:13:31;100105.00;;;23.82
68588;BMP180;55560;52.174;20.996;2022-08-21T06:18:30;100108.40;;;23.88
68588;BMP180;55560;52.174;20.996;2022-08-21T06:20:57;100104.80;;;23.80
68588;BMP180;55560;52.174;20.996;2022-08-21T06:23:27;100103.80;;;24.00
68588;BMP180;55560;52.174;20.996;2022-08-21T06:26:01;100107.00;;;24.30
68588;BMP180;55560;52.174;20.996;2022-08-21T06:28:29;100111.40;;;24.50
68588;BMP180;55560;52.174;20.996;2022-08-21T06:30:57;100122.80;;;24.60
68588;BMP180;55560;52.174;20.996;2022-08-21T06:33:25;100123.40;;;24.60
68588;BMP180;55560;52.174;20.996;2022-08-21T06:35:58;100120.40;;;24.50
68588;BMP180;55560;52.174;20.996;2022-08-21T06:38:27;100121.80;;;24.50
68588;BMP180;55560;52.174;20.996;2022-08-21T06:40:55;100126.20;;;24.60
68588;BMP180;55560;52.174;20.996;2022-08-21T06:43:24;100126.60;;;24.60
68588;BMP180;55560;52.174;20.996;2022-08-21T06:46:07;100128.00;;;24.70
68588;BMP180;55560;52.174;20.996;2022-08-21T06:48:35;100130.20;;;24.90
68588;BMP180;55560;52.174;20.996;2022-08-21T06:51:04;100132.60;;;25.10
68588;BMP180;55560;52.174;20.996;2022-08-21T06:53:32;100127.20;;;25.20
68588;BMP180;55560;52.174;20.996;2022-08-21T06:56:00;100127.00;;;25.50
68588;BMP180;55560;52.174;20.996;2022-08-21T06:58:29;100126.60;;;25.84
68588;BMP180;55560;52.174;20.996;2022-08-21T07:00:57;100128.00;;;26.00
68588;BMP180;55560;52.174;20.996;2022-08-21T07:03:30;100131.60;;;26.10
68588;BMP180;55560;52.174;20.996;2022-08-21T07:05:57;100136.00;;;26.30
68588;BMP180;55560;52.174;20.996;2022-08-21T07:08:26;100137.20;;;26.60
68588;BMP180;55560;52.174;20.996;2022-08-21T07:10:56;100137.40;;;27.00
68588;BMP180;55560;52.174;20.996;2022-08-21T07:13:24;100142.80;;;27.00
68588;BMP180;55560;52.174;20.996;2022-08-21T07:15:52;100132.00;;;27.00
68588;BMP180;55560;52.174;20.996;2022-08-21T07:18:20;100137.00;;;26.90
68588;BMP180;55560;52.174;20.996;2022-08-21T07:20:48;100136.00;;;26.80
68588;BMP180;55560;52.174;20.996;2022-08-21T07:23:23;100133.00;;;26.80
68588;BMP180;55560;52.174;20.996;2022-08-21T07:25:52;100128.40;;;26.70
68588;BMP180;55560;52.174;20.996;2022-08-21T07:28:19;100125.60;;;26.70
68588;BMP180;55560;52.174;20.996;2022-08-21T07:30:53;100129.00;;;26.60
68588;BMP180;55560;52.174;20.996;2022-08-21T07:33:21;100126.00;;;26.60
68588;BMP180;55560;52.174;20.996;2022-08-21T07:35:49;100121.60;;;26.50
68588;BMP180;55560;52.174;20.996;2022-08-21T07:38:16;100115.40;;;26.40
68588;BMP180;55560;52.174;20.996;2022-08-21T07:40:46;100108.20;;;26.30
68588;BMP180;55560;52.174;20.996;2022-08-21T07:43:14;100111.40;;;26.26
68588;BMP180;55560;52.174;20.996;2022-08-21T07:45:44;100107.40;;;26.20
68588;BMP180;55560;52.174;20.996;2022-08-21T07:48:12;100105.20;;;26.18
68588;BMP180;55560;52.174;20.996;2022-08-21T07:50:40;100107.00;;;26.10
68588;BMP180;55560;52.174;20.996;2022-08-21T07:53:08;100101.60;;;26.20
68588;BMP180;55560;52.174;20.996;2022-08-21T07:55:36;100103.00;;;26.16
68588;BMP180;55560;52.174;20.996;2022-08-21T07:58:04;100103.40;;;26.10
68588;BMP180;55560;52.174;20.996;2022-08-21T08:00:32;100097.60;;;26.10
68588;BMP180;55560;52.174;20.996;2022-08-21T08:03:00;100094.20;;;26.10
68588;BMP180;55560;52.174;20.996;2022-08-21T08:05:29;100094.60;;;26.10
68588;BMP180;55560;52.174;20.996;2022-08-21T08:07:58;100090.40;;;26.10
68588;BMP180;55560;52.174;20.996;2022-08-21T08:10:26;100086.00;;;26.18
68588;BMP180;55560;52.174;20.996;2022-08-21T08:12:54;100085.20;;;26.20
68588;BMP180;55560;52.174;20.996;2022-08-21T08:15:25;100090.40;;;26.20
68588;BMP180;55560;52.174;20.996;2022-08-21T08:17:53;100090.00;;;26.20
68588;BMP180;55560;52.174;20.996;2022-08-21T08:20:22;100087.20;;;26.24
68588;BMP180;55560;52.174;20.996;2022-08-21T08:22:53;100087.40;;;26.30
68588;BMP180;55560;52.174;20.996;2022-08-21T08:25:22;100089.00;;;26.40
68588;BMP180;55560;52.174;20.996;2022-08-21T08:27:50;100088.80;;;26.46
68588;BMP180;55560;52.174;20.996;2022-08-21T08:30:18;100087.40;;;26.50
68588;BMP180;55560;52.174;20.996;2022-08-21T08:32:47;100092.80;;;26.50
68588;BMP180;55560;52.174;20.996;2022-08-21T08:35:15;100092.00;;;26.60
68588;BMP180;55560;52.174;20.996;2022-08-21T08:37:43;100086.40;;;26.60
68588;BMP180;55560;52.174;20.996;2022-08-21T08:43:19;100083.60;;;26.62
68588;BMP180;55560;52.174;20.996;2022-08-21T08:45:50;100081.40;;;26.70
68588;BMP180;55560;52.174;20.996;2022-08-21T08:48:50;100077.80;;;26.60
68588;BMP180;55560;52.174;20.996;2022-08-21T08:51:33;100077.20;;;26.60
68588;BMP180;55560;52.174;20.996;2022-08-21T08:54:08;100077.20;;;26.60
68588;BMP180;55560;52.174;20.996;2022-08-21T08:56:37;100080.20;;;26.62
68588;BMP180;55560;52.174;20.996;2022-08-21T08:59:12;100079.40;;;26.70
68588;BMP180;55560;52.174;20.996;2022-08-21T09:01:42;100082.40;;;26.70
68588;BMP180;55560;52.174;20.996;2022-08-21T09:04:10;100078.80;;;26.70
68588;BMP180;55560;52.174;20.996;2022-08-21T09:07:12;100080.20;;;26.70
68588;BMP180;55560;52.174;20.996;2022-08-21T09:15:26;100079.80;;;26.60
68588;BMP180;55560;52.174;20.996;2022-08-21T09:27:10;100084.60;;;26.88
68588;BMP180;55560;52.174;20.996;2022-08-21T09:29:19;100082.00;;;26.92
68588;BMP180;55560;52.174;20.996;2022-08-21T09:31:49;100082.60;;;27.00
68588;BMP180;55560;52.174;20.996;2022-08-21T09:34:25;100078.20;;;27.10
68588;BMP180;55560;52.174;20.996;2022-08-21T09:36:53;100080.80;;;27.10
68588;BMP180;55560;52.174;20.996;2022-08-21T09:39:37;100074.40;;;27.20
68588;BMP180;55560;52.174;20.996;2022-08-21T09:42:08;100072.80;;;27.30
68588;BMP180;55560;52.174;20.996;2022-08-21T09:44:39;100072.20;;;27.30
68588;BMP180;55560;52.174;20.996;2022-08-21T09:47:11;100072.80;;;27.30
68588;BMP180;55560;52.174;20.996;2022-08-21T09:49:41;100070.80;;;27.30
68588;BMP180;55560;52.174;20.996;2022-08-21T09:52:20;100071.00;;;27.30
68588;BMP180;55560;52.174;20.996;2022-08-21T09:54:52;100065.60;;;27.30
68588;BMP180;55560;52.174;20.996;2022-08-21T09:57:28;100066.60;;;27.30
68588;BMP180;55560;52.174;20.996;2022-08-21T10:00:29;100053.80;;;27.40
68588;BMP180;55560;52.174;20.996;2022-08-21T10:03:09;100062.40;;;27.50
68588;BMP180;55560;52.174;20.996;2022-08-21T10:05:38;100064.20;;;27.60
68588;BMP180;55560;52.174;20.996;2022-08-21T10:08:16;100059.40;;;27.70
68588;BMP180;55560;52.174;20.996;2022-08-21T10:10:44;100058.20;;;27.70
68588;BMP180;55560;52.174;20.996;2022-08-21T10:18:47;100061.60;;;27.70
68588;BMP180;55560;52.174;20.996;2022-08-21T10:21:36;100064.00;;;27.80
68588;BMP180;55560;52.174;20.996;2022-08-21T10:29:57;100057.80;;;27.60
68588;BMP180;55560;52.174;20.996;2022-08-21T10:33:04;100063.80;;;27.50
68588;BMP180;55560;52.174;20.996;2022-08-21T10:35:40;100059.00;;;27.50
68588;BMP180;55560;52.174;20.996;2022-08-21T10:38:35;100057.60;;;27.50
68588;BMP180;55560;52.174;20.996;2022-08-21T10:41:52;100056.00;;;27.60
68588;BMP180;55560;52.174;20.996;2022-08-21T10:44:35;100055.00;;;27.70
68588;BMP180;55560;52.174;20.996;2022-08-21T10:47:32;100053.00;;;27.78
68588;BMP180;55560;52.174;20.996;2022-08-21T10:55:25;100053.00;;;28.20
68588;BMP180;55560;52.174;20.996;2022-08-21T11:00:49;100050.40;;;28.40
68588;BMP180;55560;52.174;20.996;2022-08-21T11:03:29;100048.80;;;28.40
68588;BMP180;55560;52.174;20.996;2022-08-21T11:08:57;100048.60;;;28.20
68588;BMP180;55560;52.174;20.996;2022-08-21T11:11:44;100049.00;;;28.20
68588;BMP180;55560;52.174;20.996;2022-08-21T11:14:47;100045.40;;;28.20
68588;BMP180;55560;52.174;20.996;2022-08-21T11:17:20;100048.60;;;28.10
68588;BMP180;55560;52.174;20.996;2022-08-21T11:20:03;100041.40;;;28.10
68588;BMP180;55560;52.174;20.996;2022-08-21T11:27:40;100037.60;;;28.10
68588;BMP180;55560;52.174;20.996;2022-08-21T11:30:10;100038.40;;;28.20
68588;BMP180;55560;52.174;20.996;2022-08-21T11:33:01;100038.40;;;28.20
68588;BMP180;55560;52.174;20.996;2022-08-21T11:35:36;100036.00;;;28.20
68588;BMP180;55560;52.174;20.996;2022-08-21T11:41:15;100035.20;;;28.30
68588;BMP180;55560;52.174;20.996;2022-08-21T11:43:48;100037.60;;;28.30
68588;BMP180;55560;52.174;20.996;2022-08-21T11:54:43;100040.40;;;28.60
68588;BMP180;55560;52.174;20.996;2022-08-21T11:59:55;100037.00;;;28.80
68588;BMP180;55560;52.174;20.996;2022-08-21T12:02:29;100038.20;;;28.80
68588;BMP180;55560;52.174;20.996;2022-08-21T12:05:06;100038.60;;;28.80
68588;BMP180;55560;52.174;20.996;2022-08-21T12:07:41;100036.40;;;28.86
68588;BMP180;55560;52.174;20.996;2022-08-21T12:10:16;100031.80;;;28.90
68588;BMP180;55560;52.174;20.996;2022-08-21T12:12:44;100029.60;;;28.94
68588;BMP180;55560;52.174;20.996;2022-08-21T12:15:16;100026.20;;;29.02
68588;BMP180;55560;52.174;20.996;2022-08-21T12:18:27;100015.00;;;29.10
68588;BMP180;55560;52.174;20.996;2022-08-21T12:21:32;100017.80;;;29.18
68588;BMP180;55560;52.174;20.996;2022-08-21T12:26:57;100017.00;;;29.20
68588;BMP180;55560;52.174;20.996;2022-08-21T12:34:44;100027.00;;;29.60
68588;BMP180;55560;52.174;20.996;2022-08-21T12:39:43;100024.60;;;29.90
68588;BMP180;55560;52.174;20.996;2022-08-21T12:42:20;100022.00;;;30.00
68588;BMP180;55560;52.174;20.996;2022-08-21T12:44:56;100021.80;;;30.10
68588;BMP180;55560;52.174;20.996;2022-08-21T12:47:32;100023.40;;;30.20
68588;BMP180;55560;52.174;20.996;2022-08-21T12:50:11;100023.60;;;30.20
68588;BMP180;55560;52.174;20.996;2022-08-21T12:55:13;100017.00;;;30.10
68588;BMP180;55560;52.174;20.996;2022-08-21T12:57:43;100021.60;;;29.92
68588;BMP180;55560;52.174;20.996;2022-08-21T13:00:12;100023.40;;;29.70
68588;BMP180;55560;52.174;20.996;2022-08-21T13:02:46;100025.60;;;29.50
68588;BMP180;55560;52.174;20.996;2022-08-21T13:05:35;100027.60;;;29.40
68588;BMP180;55560;52.174;20.996;2022-08-21T13:08:04;100024.20;;;29.30
68588;BMP180;55560;52.174;20.996;2022-08-21T13:10:33;100024.60;;;29.40
68588;BMP180;55560;52.174;20.996;2022-08-21T13:13:17;100019.60;;;29.58
68588;BMP180;55560;52.174;20.996;2022-08-21T13:16:13;100020.40;;;29.72
68588;BMP180;55560;52.174;20.996;2022-08-21T13:19:04;100022.40;;;29.96
68588;BMP180;55560;52.174;20.996;2022-08-21T13:21:34;100018.00;;;30.00
68588;BMP180;55560;52.174;20.996;2022-08-21T13:27:02;100021.20;;;30.20
68588;BMP180;55560;52.174;20.996;2022-08-21T13:29:32;100022.60;;;30.24
68588;BMP180;55560;52.174;20.996;2022-08-21T13:32:05;100018.60;;;30.22
68588;BMP180;55560;52.174;20.996;2022-08-21T13:34:36;100017.20;;;30.30
68588;BMP180;55560;52.174;20.996;2022-08-21T13:37:06;100019.40;;;30.30
68588;BMP180;55560;52.174;20.996;2022-08-21T13:39:34;100023.00;;;30.16
68588;BMP180;55560;52.174;20.996;2022-08-21T13:42:10;100017.20;;;30.00
68588;BMP180;55560;52.174;20.996;2022-08-21T13:44:43;100024.20;;;29.98
68588;BMP180;55560;52.174;20.996;2022-08-21T13:47:13;100024.20;;;29.96
68588;BMP180;55560;52.174;20.996;2022-08-21T13:49:45;100026.40;;;30.10
68588;BMP180;55560;52.174;20.996;2022-08-21T13:52:22;100024.60;;;30.38
68588;BMP180;55560;52.174;20.996;2022-08-21T13:55:06;100030.00;;;30.40
68588;BMP180;55560;52.174;20.996;2022-08-21T13:57:38;100028.80;;;30.26
68588;BMP180;55560;52.174;20.996;2022-08-21T14:00:47;100028.40;;;30.00
68588;BMP180;55560;52.174;20.996;2022-08-21T14:03:36;100030.00;;;29.70
68588;BMP180;55560;52.174;20.996;2022-08-21T14:06:17;100027.00;;;29.60
68588;BMP180;55560;52.174;20.996;2022-08-21T14:09:07;100027.80;;;29.90
68588;BMP180;55560;52.174;20.996;2022-08-21T14:11:36;100034.00;;;30.30
68588;BMP180;55560;52.174;20.996;2022-08-21T14:14:12;100028.80;;;30.84
68588;BMP180;55560;52.174;20.996;2022-08-21T14:16:56;100033.00;;;31.70
68588;BMP180;55560;52.174;20.996;2022-08-21T14:19:27;100034.20;;;32.88
68588;BMP180;55560;52.174;20.996;2022-08-21T14:21:55;100038.40;;;34.30
68588;BMP180;55560;52.174;20.996;2022-08-21T14:27:00;100053.40;;;36.78
68588;BMP180;55560;52.174;20.996;2022-08-21T14:29:34;100053.80;;;38.14
68588;BMP180;55560;52.174;20.996;2022-08-21T14:32:09;100057.00;;;38.20
68588;BMP180;55560;52.174;20.996;2022-08-21T14:34:52;100053.40;;;37.26
68588;BMP180;55560;52.174;20.996;2022-08-21T14:37:22;100045.40;;;36.56
68588;BMP180;55560;52.174;20.996;2022-08-21T14:39:50;100040.80;;;35.70
68588;BMP180;55560;52.174;20.996;2022-08-21T14:42:18;100042.20;;;34.78
68588;BMP180;55560;52.174;20.996;2022-08-21T14:44:46;100032.20;;;34.04
68588;BMP180;55560;52.174;20.996;2022-08-21T14:47:14;100031.80;;;33.42
68588;BMP180;55560;52.174;20.996;2022-08-21T14:49:42;100033.80;;;32.88
68588;BMP180;55560;52.174;20.996;2022-08-21T14:52:11;100031.00;;;32.32
68588;BMP180;55560;52.174;20.996;2022-08-21T14:54:39;100029.20;;;32.00
68588;BMP180;55560;52.174;20.996;2022-08-21T14:57:08;100025.40;;;31.70
68588;BMP180;55560;52.174;20.996;2022-08-21T14:59:37;100017.40;;;31.30
68588;BMP180;55560;52.174;20.996;2022-08-21T15:02:07;100019.20;;;30.92
68588;BMP180;55560;52.174;20.996;2022-08-21T15:04:35;100020.20;;;30.70
68588;BMP180;55560;52.174;20.996;2022-08-21T15:07:03;100015.20;;;30.48
68588;BMP180;55560;52.174;20.996;2022-08-21T15:09:31;100019.00;;;30.26
68588;BMP180;55560;52.174;20.996;2022-08-21T15:12:00;100014.80;;;30.10
68588;BMP180;55560;52.174;20.996;2022-08-21T15:14:30;100013.60;;;29.84
68588;BMP180;55560;52.174;20.996;2022-08-21T15:17:00;100013.60;;;29.60
68588;BMP180;55560;52.174;20.996;2022-08-21T15:19:28;100011.80;;;29.50
68588;BMP180;55560;52.174;20.996;2022-08-21T15:21:57;100012.60;;;29.30
68588;BMP180;55560;52.174;20.996;2022-08-21T15:24:25;100013.00;;;29.20
68588;BMP180;55560;52.174;20.996;2022-08-21T15:26:54;100012.80;;;29.00
68588;BMP180;55560;52.174;20.996;2022-08-21T15:29:25;100012.60;;;28.96
68588;BMP180;55560;52.174;20.996;2022-08-21T15:32:15;100015.20;;;28.90
68588;BMP180;55560;52.174;20.996;2022-08-21T15:34:43;100014.00;;;28.80
68588;BMP180;55560;52.174;20.996;2022-08-21T15:37:11;100010.40;;;28.60
68588;BMP180;55560;52.174;20.996;2022-08-21T15:39:39;100012.60;;;28.50